Time;durP1;ratioP1;P1;durP2;ratioP2;P2;SDS_P1;SDS_P2;PMS_P1;PMS_P2;Temp;Humidity;BMP_temperature;BMP_pressure;BME280_temperature;BME280_humidity;BME280_pressure;Samples;Min_cycle;Max_cycle;Signal;HPM_P1;HPM_P2
2022/09/12 00:01:25;;;;;;;2.53;2.20;;;24.50;50.40;;;;;;5042481;28;20037;-54
2022/09/12 00:03:57;;;;;;;2.20;1.90;;;24.50;50.50;;;;;;5039679;28;20050;-54
2022/09/12 00:06:34;;;;;;;2.15;1.88;;;24.60;50.50;;;;;;5025659;28;20448;-54
2022/09/12 00:09:07;;;;;;;2.35;1.80;;;24.60;50.50;;;;;;5039558;28;20033;-55
2022/09/12 00:11:37;;;;;;;2.42;1.75;;;24.50;50.40;;;;;;5042380;28;20033;-52
2022/09/12 00:14:06;;;;;;;1.95;1.60;;;24.50;50.50;;;;;;5038851;28;20025;-55
2022/09/12 00:16:34;;;;;;;1.92;1.73;;;24.50;50.50;;;;;;5037503;28;20080;-54
2022/09/12 00:19:00;;;;;;;2.35;1.80;;;24.50;50.50;;;;;;5035006;28;20518;-52
2022/09/12 00:21:26;;;;;;;2.22;1.98;;;24.50;50.50;;;;;;5042107;28;20044;-55
2022/09/12 00:23:52;;;;;;;1.83;1.55;;;24.50;50.50;;;;;;5035914;28;20052;-53
2022/09/12 00:26:20;;;;;;;2.83;2.00;;;24.50;50.50;;;;;;5044998;28;20029;-51
2022/09/12 00:28:47;;;;;;;2.20;1.70;;;24.50;50.50;;;;;;5030996;28;20069;-53
2022/09/12 00:31:15;;;;;;;1.83;1.60;;;24.50;50.50;;;;;;5038769;28;20578;-56
2022/09/12 00:33:42;;;;;;;1.75;1.65;;;24.50;50.40;;;;;;5040191;28;20333;-54
2022/09/12 00:36:11;;;;;;;2.00;1.73;;;24.50;50.40;;;;;;5041434;28;20033;-53
2022/09/12 00:38:40;;;;;;;1.98;1.77;;;24.40;50.30;;;;;;5033457;28;20026;-53
2022/09/12 00:41:12;;;;;;;2.13;1.88;;;24.40;50.30;;;;;;5038102;28;20329;-54
2022/09/12 00:43:44;;;;;;;1.98;1.80;;;24.40;50.30;;;;;;5038470;28;20380;-53
2022/09/12 00:46:21;;;;;;;1.65;1.52;;;24.40;50.30;;;;;;5040234;28;20021;-52
2022/09/12 00:49:13;;;;;;;1.90;1.73;;;24.40;50.30;;;;;;5038869;28;20037;-52
2022/09/12 00:51:44;;;;;;;2.45;1.88;;;24.40;50.20;;;;;;5035049;28;20112;-51
2022/09/12 00:54:15;;;;;;;2.30;2.10;;;24.40;50.30;;;;;;5038749;28;20037;-53
2022/09/12 00:56:44;;;;;;;2.72;1.95;;;24.40;50.30;;;;;;5040928;28;20030;-52
2022/09/12 00:59:24;;;;;;;2.78;1.90;;;24.40;50.30;;;;;;5040311;28;20083;-50
2022/09/12 01:01:52;;;;;;;2.17;1.98;;;24.40;50.90;;;;;;5044683;28;20076;-54
2022/09/12 01:04:21;;;;;;;2.45;2.25;;;24.40;50.30;;;;;;5038692;28;20037;-54
2022/09/12 01:06:48;;;;;;;2.08;1.75;;;24.40;50.30;;;;;;5045263;28;20056;-53
2022/09/12 01:09:17;;;;;;;2.97;2.25;;;24.30;50.20;;;;;;5032366;28;20041;-54
2022/09/12 01:11:45;;;;;;;1.73;1.63;;;24.40;50.20;;;;;;5040221;28;20037;-56
2022/09/12 01:14:13;;;;;;;3.15;2.50;;;24.30;50.20;;;;;;5032623;28;20025;-55
2022/09/12 01:16:39;;;;;;;2.53;2.33;;;24.30;50.20;;;;;;5044284;28;20459;-52
2022/09/12 01:19:26;;;;;;;2.30;2.10;;;24.30;50.20;;;;;;5043150;28;20025;-53
2022/09/12 01:22:21;;;;;;;2.53;2.33;;;24.30;50.10;;;;;;5036953;28;20116;-51
2022/09/12 01:24:53;;;;;;;2.70;2.30;;;24.30;50.10;;;;;;5029667;28;20037;-54
2022/09/12 01:27:27;;;;;;;3.67;2.20;;;24.30;50.10;;;;;;5038259;28;20100;-54
2022/09/12 01:29:52;;;;;;;2.60;2.15;;;24.30;50.20;;;;;;5039687;28;20029;-53
2022/09/12 01:32:21;;;;;;;3.42;2.30;;;24.30;50.10;;;;;;5040663;28;20033;-54
2022/09/12 01:34:57;;;;;;;2.80;2.60;;;24.30;50.20;;;;;;5046231;28;20044;-55
2022/09/12 01:37:38;;;;;;;2.38;2.17;;;24.30;50.20;;;;;;5045889;28;20066;-54
2022/09/12 01:40:31;;;;;;;2.75;2.30;;;24.30;50.20;;;;;;5043784;28;21644;-56
2022/09/12 01:43:30;;;;;;;2.33;2.13;;;24.30;50.10;;;;;;5044522;28;20333;-55
2022/09/12 01:46:13;;;;;;;3.22;2.67;;;24.30;50.20;;;;;;5033977;28;20029;-53
2022/09/12 01:48:47;;;;;;;2.85;2.42;;;24.20;50.00;;;;;;5037869;28;20385;-53
2022/09/12 01:51:35;;;;;;;2.92;2.33;;;24.20;50.00;;;;;;5044026;28;20032;-54
2022/09/12 01:54:17;;;;;;;2.72;2.20;;;24.20;50.00;;;;;;5044056;28;20087;-53
2022/09/12 01:56:45;;;;;;;2.63;2.13;;;24.20;50.30;;;;;;5039800;28;20127;-54
2022/09/12 01:59:20;;;;;;;3.15;2.30;;;24.20;50.00;;;;;;5046974;28;20341;-55
2022/09/12 02:02:13;;;;;;;2.80;2.28;;;24.20;50.30;;;;;;5040224;28;20048;-54
2022/09/12 02:05:12;;;;;;;2.33;2.13;;;24.20;50.00;;;;;;5032807;28;20040;-51
2022/09/12 02:07:43;;;;;;;2.42;2.15;;;24.20;50.00;;;;;;5039912;28;20059;-55
2022/09/12 02:10:12;;;;;;;2.45;2.10;;;24.20;49.90;;;;;;5035824;28;20373;-51
2022/09/12 02:12:47;;;;;;;2.42;2.22;;;24.20;50.00;;;;;;5034933;28;20033;-56
2022/09/12 02:15:16;;;;;;;2.80;2.22;;;24.20;49.90;;;;;;5030186;28;20164;-56
2022/09/12 02:17:46;;;;;;;2.80;2.53;;;24.20;50.00;;;;;;5037403;28;20130;-54
2022/09/12 02:20:31;;;;;;;2.67;2.47;;;24.20;49.90;;;;;;5042925;28;20177;-55
2022/09/12 02:22:57;;;;;;;;;;;24.20;50.00;;;;;;5037838;28;20036;-56
2022/09/12 02:25:24;;;;;;;3.05;2.60;;;24.20;50.00;;;;;;5040611;28;19917;-54
2022/09/12 02:28:05;;;;;;;4.07;2.40;;;24.10;50.00;;;;;;5034917;28;20049;-51
2022/09/12 02:30:59;;;;;;;3.97;2.50;;;24.10;50.00;;;;;;5034458;28;20134;-49
2022/09/12 02:33:55;;;;;;;2.60;2.40;;;24.10;50.00;;;;;;5037678;28;20033;-54
2022/09/12 02:36:56;;;;;;;2.83;2.45;;;24.10;50.00;;;;;;5034400;28;20030;-56
2022/09/12 02:39:23;;;;;;;3.30;3.00;;;24.10;49.90;;;;;;5035266;28;20083;-52
2022/09/12 02:41:56;;;;;;;2.97;2.47;;;24.10;50.00;;;;;;5038768;28;21680;-56
2022/09/12 02:44:24;;;;;;;2.75;2.25;;;24.10;50.00;;;;;;5030010;28;20400;-55
2022/09/12 02:46:56;;;;;;;3.05;2.60;;;24.10;50.00;;;;;;5040689;28;20028;-54
2022/09/12 02:49:23;;;;;;;3.53;2.67;;;24.10;49.90;;;;;;5038691;28;20032;-54
2022/09/12 02:51:49;;;;;;;2.88;2.40;;;24.10;50.00;;;;;;5042379;28;20116;-52
2022/09/12 02:54:16;;;;;;;3.38;2.80;;;24.10;50.00;;;;;;5039840;28;20032;-54
2022/09/12 02:56:44;;;;;;;3.05;2.75;;;24.10;50.00;;;;;;5036857;28;20338;-51
2022/09/12 02:59:14;;;;;;;3.72;2.85;;;24.10;49.90;;;;;;5041205;28;20021;-55
2022/09/12 03:02:14;;;;;;;2.65;2.20;;;24.10;49.90;;;;;;5042968;28;20049;-48
2022/09/12 03:04:50;;;;;;;2.78;2.40;;;24.10;49.90;;;;;;5041470;28;20071;-53
2022/09/12 03:07:30;;;;;;;2.53;2.30;;;24.10;49.90;;;;;;5036596;28;20383;-55
2022/09/12 03:10:09;;;;;;;3.83;3.00;;;24.10;49.90;;;;;;5044436;28;20103;-53
2022/09/12 03:12:59;;;;;;;3.28;2.90;;;24.00;49.80;;;;;;5042797;28;20037;-54
2022/09/12 03:16:08;;;;;;;3.33;2.95;;;24.00;49.80;;;;;;5038459;28;20479;-53
2022/09/12 03:18:50;;;;;;;4.03;3.28;;;24.00;49.80;;;;;;5027305;28;20106;-54
2022/09/12 03:21:22;;;;;;;3.15;2.70;;;24.00;49.80;;;;;;5043370;28;20045;-54
2022/09/12 03:24:10;;;;;;;3.03;2.67;;;24.00;49.90;;;;;;5042470;28;20043;-54
2022/09/12 03:27:07;;;;;;;3.42;2.75;;;24.00;49.90;;;;;;5037201;28;20042;-51
2022/09/12 03:29:34;;;;;;;2.97;2.40;;;24.00;49.90;;;;;;5020114;28;20081;-57
2022/09/12 03:32:00;;;;;;;4.47;3.00;;;24.00;49.90;;;;;;5033380;28;20121;-53
2022/09/12 03:34:27;;;;;;;3.10;2.80;;;24.00;49.90;;;;;;5038969;28;21771;-54
2022/09/12 03:36:57;;;;;;;3.40;2.90;;;24.00;49.90;;;;;;5027198;28;20025;-51
2022/09/12 03:39:25;;;;;;;3.25;2.70;;;24.00;49.90;;;;;;5038984;28;20396;-51
2022/09/12 03:41:51;;;;;;;3.97;2.88;;;24.00;49.90;;;;;;5043057;28;20133;-55
2022/09/12 03:44:17;;;;;;;3.38;2.67;;;24.00;49.90;;;;;;5035044;28;20104;-55
2022/09/12 03:46:44;;;;;;;3.35;3.05;;;24.00;49.90;;;;;;5040585;28;20029;-55
2022/09/12 03:49:10;;;;;;;2.88;2.67;;;24.00;50.50;;;;;;5040117;28;20033;-56
2022/09/12 03:51:37;;;;;;;3.30;3.00;;;24.00;49.90;;;;;;5043895;28;20432;-50
2022/09/12 03:54:03;;;;;;;3.42;2.65;;;24.00;49.90;;;;;;5031336;28;20029;-56
2022/09/12 03:56:29;;;;;;;3.33;2.80;;;23.90;49.80;;;;;;5044332;28;20071;-54
2022/09/12 03:58:55;;;;;;;3.72;2.72;;;24.00;49.90;;;;;;5024959;28;20032;-52
2022/09/12 04:01:20;;;;;;;4.45;2.88;;;24.00;49.80;;;;;;5030602;28;20453;-53
2022/09/12 04:03:50;;;;;;;2.75;2.47;;;23.90;49.70;;;;;;5042763;28;20108;-57
2022/09/12 04:06:18;;;;;;;3.47;2.80;;;23.90;49.70;;;;;;5041156;28;20052;-54
2022/09/12 04:08:50;;;;;;;2.95;2.72;;;23.90;49.70;;;;;;5027956;28;20041;-53
2022/09/12 04:11:17;;;;;;;2.92;2.55;;;23.90;49.70;;;;;;5045110;28;20020;-51
2022/09/12 04:13:44;;;;;;;4.57;2.72;;;23.90;49.70;;;;;;5038444;28;20033;-55
2022/09/12 04:16:11;;;;;;;3.22;2.92;;;23.90;49.70;;;;;;5044012;28;20052;-55
2022/09/12 04:18:37;;;;;;;4.38;2.63;;;23.90;49.70;;;;;;5036259;28;20033;-56
2022/09/12 04:21:05;;;;;;;4.72;2.95;;;23.90;49.70;;;;;;5049965;28;20043;-55
2022/09/12 04:23:31;;;;;;;2.90;2.60;;;23.90;49.70;;;;;;5031303;28;20036;-52
2022/09/12 04:25:59;;;;;;;3.78;2.83;;;23.90;49.80;;;;;;5048390;28;20029;-53
2022/09/12 04:28:25;;;;;;;3.55;2.80;;;23.90;49.90;;;;;;5031390;28;20052;-54
2022/09/12 04:30:51;;;;;;;3.40;3.05;;;23.90;49.90;;;;;;5035408;28;20032;-55
2022/09/12 04:33:17;;;;;;;4.68;3.00;;;23.90;49.90;;;;;;5038611;28;20029;-55
2022/09/12 04:35:44;;;;;;;3.45;3.15;;;23.90;49.90;;;;;;5045157;28;20021;-53
2022/09/12 04:38:10;;;;;;;3.20;2.75;;;23.90;49.90;;;;;;5042514;28;20029;-56
2022/09/12 04:40:36;;;;;;;3.42;3.10;;;23.90;49.90;;;;;;5041882;28;20569;-50
2022/09/12 04:43:03;;;;;;;3.78;3.13;;;23.90;49.90;;;;;;5043477;28;20020;-54
2022/09/12 04:45:29;;;;;;;3.80;3.28;;;23.80;49.80;;;;;;5038346;28;20029;-53
2022/09/12 04:47:55;;;;;;;3.63;3.25;;;23.90;49.90;;;;;;5038873;28;20029;-50
2022/09/12 04:50:21;;;;;;;3.20;2.90;;;23.90;49.90;;;;;;5048873;28;20486;-53
2022/09/12 04:52:51;;;;;;;4.10;3.40;;;23.90;49.90;;;;;;5031909;28;20056;-54
2022/09/12 04:55:17;;;;;;;3.17;2.88;;;23.90;49.90;;;;;;5033887;28;20091;-51
2022/09/12 04:57:43;;;;;;;4.03;3.03;;;23.80;49.90;;;;;;5039424;28;20039;-54
2022/09/12 05:00:13;;;;;;;3.63;3.17;;;23.90;49.90;;;;;;5037488;28;20547;-55
2022/09/12 05:02:40;;;;;;;3.70;3.15;;;23.80;49.90;;;;;;5033327;28;20025;-54
2022/09/12 05:05:06;;;;;;;4.07;2.92;;;23.80;49.90;;;;;;5045265;28;20468;-52
2022/09/12 05:07:32;;;;;;;3.00;2.70;;;23.80;49.90;;;;;;5041827;28;20076;-52
2022/09/12 05:09:59;;;;;;;4.72;3.40;;;23.80;50.00;;;;;;5041720;28;20033;-53
2022/09/12 05:12:26;;;;;;;4.15;3.60;;;23.80;50.00;;;;;;5034622;28;20045;-55
2022/09/12 05:14:51;;;;;;;3.85;2.95;;;23.80;50.00;;;;;;5036768;28;20025;-53
2022/09/12 05:17:17;;;;;;;4.50;2.95;;;23.80;50.00;;;;;;5035421;28;20337;-54
2022/09/12 05:19:43;;;;;;;4.35;3.60;;;23.80;50.10;;;;;;5043366;28;20086;-51
2022/09/12 05:22:09;;;;;;;4.50;3.40;;;23.80;50.10;;;;;;5039658;28;20029;-52
2022/09/12 05:24:38;;;;;;;7.57;3.45;;;23.80;50.10;;;;;;5040537;28;20402;-51
2022/09/12 05:27:04;;;;;;;3.80;3.15;;;23.80;50.10;;;;;;5041560;28;20057;-53
2022/09/12 05:29:30;;;;;;;4.53;3.60;;;23.80;50.10;;;;;;5033621;28;20080;-54
2022/09/12 05:31:56;;;;;;;4.80;3.80;;;23.80;50.10;;;;;;5036404;28;20098;-54
2022/09/12 05:34:22;;;;;;;4.15;3.45;;;23.70;50.10;;;;;;5025707;28;20448;-52
2022/09/12 05:36:48;;;;;;;3.72;2.90;;;23.80;50.20;;;;;;5024587;28;20091;-54
2022/09/12 05:39:14;;;;;;;4.60;3.60;;;23.70;50.10;;;;;;5035060;28;20042;-50
2022/09/12 05:41:40;;;;;;;3.80;3.40;;;23.70;50.10;;;;;;5038738;28;20021;-55
2022/09/12 05:44:11;;;;;;;4.47;3.50;;;23.70;50.20;;;;;;5044134;28;20411;-53
2022/09/12 05:46:39;;;;;;;4.50;3.42;;;23.80;50.30;;;;;;5040996;28;20049;-52
2022/09/12 05:49:07;;;;;;;5.10;3.80;;;23.70;50.20;;;;;;5036010;28;20040;-53
2022/09/12 05:51:36;;;;;;;5.25;3.88;;;23.80;50.30;;;;;;5039802;28;20025;-56
2022/09/12 05:54:04;;;;;;;4.38;3.78;;;23.80;50.30;;;;;;5042667;28;20108;-54
2022/09/12 05:56:32;;;;;;;6.15;4.22;;;23.70;50.30;;;;;;5071129;28;20063;-54
2022/09/12 05:59:03;;;;;;;6.40;3.85;;;23.70;50.30;;;;;;5038002;28;20147;-54
2022/09/12 06:01:32;;;;;;;7.53;4.32;;;23.70;50.30;;;;;;5033491;28;20799;-53
2022/09/12 06:03:59;;;;;;;4.95;4.00;;;23.70;50.40;;;;;;5039791;28;20485;-52
2022/09/12 06:06:26;;;;;;;4.78;3.88;;;23.70;50.40;;;;;;5036760;28;20065;-53
2022/09/12 06:08:55;;;;;;;4.75;3.85;;;23.70;50.40;;;;;;5036025;28;20044;-52
2022/09/12 06:11:24;;;;;;;5.45;4.10;;;23.70;50.40;;;;;;5039130;28;20108;-54
2022/09/12 06:13:50;;;;;;;5.55;3.78;;;23.70;50.50;;;;;;5043116;28;20017;-55
2022/09/12 06:16:20;;;;;;;5.18;3.90;;;23.70;50.50;;;;;;5039379;28;20448;-52
2022/09/12 06:18:52;;;;;;;5.78;4.22;;;23.70;50.50;;;;;;5039519;28;20017;-50
2022/09/12 06:21:19;;;;;;;5.50;4.00;;;23.70;50.60;;;;;;5031926;28;20327;-50
2022/09/12 06:23:46;;;;;;;4.85;4.07;;;23.80;50.70;;;;;;5021871;28;20029;-54
2022/09/12 06:26:14;;;;;;;4.95;4.05;;;23.70;50.60;;;;;;5016449;28;20036;-54
2022/09/12 06:28:43;;;;;;;7.00;3.95;;;23.70;50.70;;;;;;5014944;28;20045;-53
2022/09/12 06:31:18;;;;;;;5.60;4.25;;;23.80;50.70;;;;;;5031905;28;20092;-53
2022/09/12 06:33:49;;;;;;;6.93;4.40;;;23.70;50.80;;;;;;5030592;28;20065;-54
2022/09/12 06:36:39;;;;;;;6.07;4.80;;;23.70;50.90;;;;;;5019003;28;20084;-54
2022/09/12 06:39:12;;;;;;;5.30;4.30;;;23.70;50.90;;;;;;5018461;28;20461;-57
2022/09/12 06:41:38;;;;;;;6.00;4.30;;;23.70;51.00;;;;;;5017921;28;20036;-55
2022/09/12 06:44:04;;;;;;;6.88;5.15;;;23.70;51.00;;;;;;5032727;28;20032;-54
2022/09/12 06:46:30;;;;;;;6.07;4.82;;;23.70;51.00;;;;;;5017861;28;20045;-53
2022/09/12 06:48:59;;;;;;;7.22;5.13;;;23.80;51.10;;;;;;5020926;28;20388;-55
2022/09/12 06:51:26;;;;;;;6.18;4.55;;;23.70;51.10;;;;;;5034039;28;20442;-61
2022/09/12 06:53:54;;;;;;;5.68;4.72;;;23.70;51.00;;;;;;5042872;28;20099;-54
2022/09/12 06:56:22;;;;;;;6.40;4.93;;;23.70;51.10;;;;;;5032342;28;20034;-54
2022/09/12 06:58:50;;;;;;;7.50;5.03;;;23.70;51.10;;;;;;5032581;28;20032;-55
2022/09/12 07:01:24;;;;;;;6.55;4.70;;;23.70;51.10;;;;;;5041652;28;20032;-53
2022/09/12 07:03:52;;;;;;;5.30;4.25;;;23.70;51.10;;;;;;5027606;28;20518;-56
2022/09/12 07:06:20;;;;;;;6.90;5.28;;;23.70;51.10;;;;;;5027432;28;20045;-54
2022/09/12 07:08:47;;;;;;;7.07;4.75;;;23.70;51.10;;;;;;5028706;28;20384;-52
2022/09/12 07:11:17;;;;;;;6.10;4.75;;;23.70;51.10;;;;;;5037470;28;20059;-52
2022/09/12 07:13:44;;;;;;;7.85;5.43;;;23.70;51.10;;;;;;5034022;28;20025;-49
2022/09/12 07:16:11;;;;;;;5.95;4.93;;;23.80;51.20;;;;;;5035197;28;20055;-54
2022/09/12 07:18:38;;;;;;;6.75;5.20;;;23.70;51.20;;;;;;5022715;28;20453;-50
2022/09/12 07:21:07;;;;;;;8.88;5.53;;;23.80;51.30;;;;;;5020081;28;20054;-55
2022/09/12 07:23:33;;;;;;;6.63;5.38;;;23.80;51.40;;;;;;5014997;28;20034;-54
2022/09/12 07:25:59;;;;;;;7.72;5.70;;;23.80;51.50;;;;;;5013847;28;20524;-52
2022/09/12 07:28:28;;;;;;;6.78;5.65;;;23.80;51.50;;;;;;5015737;28;20046;-56
2022/09/12 07:30:54;;;;;;;7.10;5.85;;;23.80;51.50;;;;;;5030382;28;20131;-52
2022/09/12 07:33:22;;;;;;;6.78;5.45;;;23.80;51.60;;;;;;5033784;28;20033;-58
2022/09/12 07:35:48;;;;;;;8.38;5.97;;;23.80;51.60;;;;;;5040366;28;20060;-51
2022/09/12 07:38:17;;;;;;;9.43;6.70;;;23.80;51.80;;;;;;5039078;28;20044;-52
2022/09/12 07:40:43;;;;;;;8.45;5.90;;;23.80;51.80;;;;;;5041992;28;20075;-54
2022/09/12 07:43:09;;;;;;;7.93;5.97;;;23.90;51.90;;;;;;5047598;28;20431;-54
2022/09/12 07:45:35;;;;;;;7.90;6.05;;;23.80;51.80;;;;;;5043486;28;20029;-53
2022/09/12 07:48:01;;;;;;;7.00;5.38;;;23.90;51.90;;;;;;5046488;28;20056;-52
2022/09/12 07:50:27;;;;;;;7.65;6.30;;;23.90;51.90;;;;;;5041452;28;20031;-53
2022/09/12 07:52:53;;;;;;;7.03;6.25;;;23.90;51.90;;;;;;5046246;28;20026;-55
2022/09/12 07:55:20;;;;;;;7.10;6.10;;;23.90;51.90;;;;;;5049915;28;20026;-52
2022/09/12 07:57:50;;;;;;;7.22;6.22;;;23.90;52.00;;;;;;5043164;28;20029;-51
2022/09/12 08:00:16;;;;;;;6.68;5.35;;;23.90;52.00;;;;;;5045583;28;20112;-54
2022/09/12 08:02:43;;;;;;;9.27;6.47;;;23.90;51.90;;;;;;5048016;28;20043;-53
2022/09/12 08:05:08;;;;;;;8.18;6.30;;;23.90;51.90;;;;;;5045981;28;20043;-53
2022/09/12 08:07:34;;;;;;;8.38;6.15;;;23.90;51.90;;;;;;5041312;28;20041;-52
2022/09/12 08:10:00;;;;;;;7.80;6.10;;;23.90;51.90;;;;;;5051536;28;20025;-49
2022/09/12 08:12:31;;;;;;;8.25;6.38;;;23.90;51.90;;;;;;5047455;28;20036;-50
2022/09/12 08:14:57;;;;;;;8.88;6.90;;;23.90;51.90;;;;;;5047600;28;20056;-47
2022/09/12 08:17:23;;;;;;;8.02;6.03;;;23.90;51.90;;;;;;5042599;28;20098;-51
2022/09/12 08:19:49;;;;;;;8.18;6.18;;;23.90;51.90;;;;;;5049944;28;20395;-53
2022/09/12 08:22:15;;;;;;;9.00;6.28;;;23.90;52.00;;;;;;5046892;28;20402;-53
2022/09/12 08:24:40;;;;;;;9.82;7.00;;;23.90;52.00;;;;;;5038677;28;20393;-53
2022/09/12 08:27:06;;;;;;;7.35;6.20;;;23.90;52.10;;;;;;5038380;28;20425;-55
2022/09/12 08:29:32;;;;;;;9.32;6.75;;;24.00;52.10;;;;;;5038549;28;20113;-54
2022/09/12 08:31:58;;;;;;;8.50;6.93;;;23.90;52.00;;;;;;5039144;28;20119;-50
2022/09/12 08:34:25;;;;;;;9.18;6.85;;;24.00;52.00;;;;;;5038789;28;20083;-54
2022/09/12 08:36:53;;;;;;;8.15;6.32;;;24.00;52.00;;;;;;5038069;28;20031;-52
2022/09/12 08:39:19;;;;;;;12.25;6.57;;;24.00;51.90;;;;;;5037524;28;20045;-55
2022/09/12 08:41:47;;;;;;;6.85;6.15;;;24.00;51.90;;;;;;5038176;28;20330;-51
2022/09/12 08:44:21;;;;;;;7.25;5.80;;;24.00;51.90;;;;;;5037739;28;20029;-55
2022/09/12 08:47:06;;;;;;;8.98;6.50;;;24.00;51.90;;;;;;5037820;28;20120;-52
2022/09/12 08:50:21;;;;;;;7.57;5.78;;;24.00;51.80;;;;;;5037766;28;20098;-52
2022/09/12 08:53:10;;;;;;;7.78;6.03;;;24.00;51.80;;;;;;5017335;28;20046;-50
2022/09/12 08:55:40;;;;;;;8.18;6.07;;;24.00;51.80;;;;;;5018361;28;20030;-52
2022/09/12 08:58:11;;;;;;;6.68;5.85;;;24.00;51.80;;;;;;5017986;28;20109;-53
2022/09/12 09:01:08;;;;;;;7.10;6.05;;;24.00;51.80;;;;;;5033321;28;20021;-51
2022/09/12 09:04:00;;;;;;;6.95;5.63;;;24.00;51.80;;;;;;5056522;28;20082;-50
2022/09/12 09:06:53;;;;;;;7.82;5.90;;;24.00;51.90;;;;;;5037460;28;20060;-54
2022/09/12 09:09:18;;;;;;;8.18;5.65;;;24.00;51.80;;;;;;5037204;28;20049;-49
2022/09/12 09:11:53;;;;;;;9.75;6.13;;;24.00;51.80;;;;;;5037332;28;20033;-51
2022/09/12 09:14:46;;;;;;;7.28;5.68;;;24.00;51.80;;;;;;5037316;28;20341;-51
2022/09/12 09:17:30;;;;;;;6.45;5.43;;;24.00;51.80;;;;;;5048096;28;20021;-51
2022/09/12 09:20:12;;;;;;;6.93;5.20;;;24.00;51.90;;;;;;5038955;28;20040;-50
2022/09/12 09:22:46;;;;;;;7.25;5.00;;;24.00;51.80;;;;;;5037314;28;20037;-48
2022/09/12 09:25:23;;;;;;;7.32;5.18;;;24.10;51.90;;;;;;5036812;28;20140;-52
2022/09/12 09:28:04;;;;;;;7.00;5.80;;;24.10;52.00;;;;;;5036854;28;20042;-52
2022/09/12 09:30:32;;;;;;;7.13;4.90;;;24.10;51.90;;;;;;5037094;28;20033;-48
2022/09/12 09:33:00;;;;;;;7.32;5.43;;;24.10;52.00;;;;;;5044794;28;20067;-53
2022/09/12 09:35:46;;;;;;;6.03;4.97;;;24.10;52.00;;;;;;5054636;28;20029;-51
2022/09/12 09:39:01;;;;;;;5.85;5.00;;;24.10;52.00;;;;;;5051771;28;20048;-54
2022/09/12 09:41:39;;;;;;;5.90;4.50;;;24.10;52.00;;;;;;5043325;28;20040;-54
2022/09/12 09:44:05;;;;;;;6.45;4.55;;;24.10;52.00;;;;;;5056744;28;20075;-52
2022/09/12 09:46:32;;;;;;;6.22;4.82;;;24.10;52.00;;;;;;5039439;28;20065;-52
2022/09/12 09:48:59;;;;;;;6.25;4.88;;;24.10;52.00;;;;;;5036367;28;20492;-51
2022/09/12 09:51:32;;;;;;;6.90;4.95;;;24.10;52.00;;;;;;5036872;28;20029;-53
2022/09/12 09:54:21;;;;;;;5.40;4.07;;;24.20;52.10;;;;;;5036805;28;20322;-54
2022/09/12 09:56:48;;;;;;;6.03;4.53;;;24.20;52.00;;;;;;5055086;28;20028;-54
2022/09/12 09:59:26;;;;;;;4.82;4.25;;;24.10;52.00;;;;;;5056660;28;20364;-56
2022/09/12 10:01:56;;;;;;;4.90;4.05;;;24.20;52.00;;;;;;5042491;28;20052;-49
2022/09/12 10:04:31;;;;;;;5.15;4.55;;;24.20;52.00;;;;;;5036087;28;20441;-54
2022/09/12 10:06:59;;;;;;;5.88;4.53;;;24.20;52.00;;;;;;5035842;28;20053;-53
2022/09/12 10:09:28;;;;;;;5.47;4.00;;;24.20;52.00;;;;;;5046629;28;20052;-52
2022/09/12 10:11:55;;;;;;;4.82;4.32;;;24.20;52.10;;;;;;5056359;28;20108;-54
2022/09/12 10:14:41;;;;;;;4.97;4.10;;;24.20;52.20;;;;;;5055765;28;20029;-51
2022/09/12 10:17:30;;;;;;;4.75;3.58;;;24.20;52.40;;;;;;5044714;28;20030;-53
2022/09/12 10:19:57;;;;;;;6.55;4.30;;;24.20;52.50;;;;;;5034366;28;20441;-55
2022/09/12 10:22:26;;;;;;;4.57;3.78;;;24.30;52.60;;;;;;5030296;28;20445;-59
2022/09/12 10:24:56;;;;;;;5.03;4.35;;;24.30;52.70;;;;;;5034426;28;20057;-62
2022/09/12 10:27:30;;;;;;;4.95;4.05;;;24.30;52.80;;;;;;5035004;28;20052;-62
2022/09/12 10:30:13;;;;;;;4.95;4.22;;;24.30;52.80;;;;;;5034321;28;20029;-62
2022/09/12 10:32:45;;;;;;;5.63;3.38;;;24.40;52.70;;;;;;5034080;28;20084;-63
2022/09/12 10:35:24;;;;;;;4.35;3.60;;;24.50;52.60;;;;;;5033616;28;20041;-60
2022/09/12 10:38:03;;;;;;;4.97;3.15;;;24.60;52.30;;;;;;5029305;28;20026;-58
2022/09/12 10:40:34;;;;;;;3.70;3.30;;;24.70;52.10;;;;;;5033657;28;20025;-58
2022/09/12 10:43:06;;;;;;;3.60;2.90;;;24.80;51.90;;;;;;5032931;28;20428;-61
2022/09/12 10:45:36;;;;;;;4.07;2.90;;;25.00;51.80;;;;;;5033347;28;20045;-59
2022/09/12 10:48:21;;;;;;;3.03;2.67;;;25.10;51.50;;;;;;5032080;28;20041;-64
2022/09/12 10:50:47;;;;;;;3.25;2.95;;;25.20;51.20;;;;;;5034067;28;20025;-61
2022/09/12 10:53:23;;;;;;;4.00;2.80;;;25.30;50.90;;;;;;5033241;28;20113;-62
2022/09/12 10:56:20;;;;;;;3.35;2.83;;;25.40;50.50;;;;;;5032755;28;20104;-63
2022/09/12 10:59:10;;;;;;;2.33;2.13;;;25.60;50.20;;;;;;5033744;28;20116;-63
2022/09/12 11:01:50;;;;;;;3.10;2.78;;;25.70;49.90;;;;;;5029134;28;20056;-57
2022/09/12 11:04:35;;;;;;;3.95;2.50;;;25.80;49.80;;;;;;5031484;28;20116;-62
2022/09/12 11:07:32;;;;;;;3.95;2.53;;;25.90;49.70;;;;;;5031588;28;20046;-59
2022/09/12 11:10:04;;;;;;;2.60;2.28;;;26.00;49.60;;;;;;5030324;28;20034;-61
2022/09/12 11:12:36;;;;;;;3.83;2.47;;;26.10;49.30;;;;;;5028523;28;20029;-57
2022/09/12 11:15:15;;;;;;;4.65;2.25;;;26.20;49.20;;;;;;5034740;28;20025;-58
2022/09/12 11:18:18;;;;;;;2.47;1.95;;;26.30;48.80;;;;;;5033580;28;20144;-60
2022/09/12 11:21:03;;;;;;;3.67;2.53;;;26.40;48.50;;;;;;5032367;28;20042;-57
2022/09/12 11:23:41;;;;;;;;;;;26.40;48.20;;;;;;5034486;28;20069;-57
2022/09/12 11:26:31;;;;;;;2.20;1.70;;;26.50;48.10;;;;;;5030260;28;19909;-52
2022/09/12 11:29:17;;;;;;;2.33;1.90;;;26.60;47.80;;;;;;5033110;28;20120;-59
2022/09/12 11:31:48;;;;;;;3.58;1.63;;;26.60;47.60;;;;;;5043307;28;20044;-53
2022/09/12 11:34:39;;;;;;;1.92;1.73;;;26.70;47.40;;;;;;5048578;28;20163;-47
2022/09/12 11:37:14;;;;;;;1.90;1.70;;;26.70;47.20;;;;;;5043472;28;20080;-56
2022/09/12 11:39:44;;;;;;;2.28;1.80;;;26.70;47.00;;;;;;5054276;28;20036;-51
2022/09/12 11:42:22;;;;;;;2.28;1.70;;;26.60;46.80;;;;;;5024779;28;20037;-52
2022/09/12 11:45:01;;;;;;;3.53;1.90;;;26.60;46.80;;;;;;5015274;28;20033;-54
2022/09/12 11:47:28;;;;;;;1.92;1.77;;;26.60;46.90;;;;;;5015784;28;20430;-51
2022/09/12 11:49:55;;;;;;;2.15;1.75;;;26.60;46.90;;;;;;5015373;28;20030;-53
2022/09/12 11:52:28;;;;;;;2.72;2.03;;;26.60;46.90;;;;;;5043988;28;20115;-55
2022/09/12 11:55:10;;;;;;;2.65;1.92;;;26.60;46.90;;;;;;5054220;28;20364;-51
2022/09/12 11:57:44;;;;;;;1.85;1.73;;;26.50;46.90;;;;;;5049446;28;20049;-54
2022/09/12 12:00:20;;;;;;;1.55;1.45;;;26.40;46.80;;;;;;5044044;28;20033;-52
2022/09/12 12:03:05;;;;;;;1.95;1.75;;;26.50;46.90;;;;;;5043248;28;20044;-55
2022/09/12 12:05:43;;;;;;;2.63;1.73;;;26.40;46.80;;;;;;5043164;28;20041;-51
2022/09/12 12:08:11;;;;;;;2.42;1.80;;;26.40;46.80;;;;;;5042586;28;20029;-53
2022/09/12 12:10:57;;;;;;;2.65;2.13;;;26.40;46.90;;;;;;5050440;28;20029;-54
2022/09/12 12:13:28;;;;;;;2.15;1.70;;;26.30;46.80;;;;;;5054354;28;20029;-50
2022/09/12 12:16:15;;;;;;;2.08;1.80;;;26.30;46.80;;;;;;5048269;28;20040;-54
2022/09/12 12:18:42;;;;;;;1.60;1.50;;;26.20;46.70;;;;;;5034550;28;20133;-52
2022/09/12 12:21:20;;;;;;;2.00;1.50;;;26.20;46.90;;;;;;5033367;28;20103;-54
2022/09/12 12:24:06;;;;;;;2.08;1.63;;;26.20;47.00;;;;;;5043362;28;20025;-54
2022/09/12 12:26:38;;;;;;;2.95;2.10;;;26.20;47.10;;;;;;5014734;28;20033;-49
2022/09/12 12:29:16;;;;;;;2.50;1.52;;;26.10;47.10;;;;;;5014675;28;20136;-54
2022/09/12 12:32:03;;;;;;;1.85;1.38;;;26.10;47.10;;;;;;5014374;28;20092;-49
2022/09/12 12:34:42;;;;;;;2.03;1.48;;;26.10;47.10;;;;;;5033588;28;20095;-57
2022/09/12 12:37:24;;;;;;;2.08;1.65;;;26.00;46.90;;;;;;5037122;28;20108;-52
2022/09/12 12:39:59;;;;;;;1.25;1.15;;;26.00;46.90;;;;;;5049363;28;20069;-54
2022/09/12 12:42:34;;;;;;;1.35;1.10;;;26.00;46.80;;;;;;5057621;28;20336;-52
2022/09/12 12:45:08;;;;;;;1.60;1.50;;;25.90;46.70;;;;;;5057714;28;20029;-51
2022/09/12 12:47:37;;;;;;;1.60;1.50;;;26.00;46.70;;;;;;5057661;28;20041;-52
2022/09/12 12:50:09;;;;;;;1.52;1.40;;;25.90;46.60;;;;;;5057544;28;20451;-50
2022/09/12 12:52:55;;;;;;;1.75;1.40;;;25.90;46.60;;;;;;5057519;28;20025;-54
2022/09/12 12:55:37;;;;;;;1.95;1.40;;;25.90;46.50;;;;;;5053890;28;20408;-51
2022/09/12 12:58:06;;;;;;;1.30;1.15;;;25.90;46.60;;;;;;5052950;28;20106;-50
2022/09/12 13:00:35;;;;;;;2.22;1.45;;;25.90;46.60;;;;;;5036288;28;20057;-51
2022/09/12 13:03:05;;;;;;;2.08;1.35;;;25.90;46.60;;;;;;5033934;28;20017;-59
2022/09/12 13:05:45;;;;;;;1.50;1.27;;;25.80;46.70;;;;;;5039499;28;20377;-60
2022/09/12 13:08:30;;;;;;;1.80;1.48;;;25.80;47.10;;;;;;5022386;28;20076;-60
2022/09/12 13:11:28;;;;;;;2.63;1.67;;;25.80;47.50;;;;;;5052236;28;20033;-59
2022/09/12 13:14:08;;;;;;;2.13;1.58;;;25.90;47.40;;;;;;5052046;28;20033;-56
2022/09/12 13:16:37;;;;;;;2.30;1.40;;;26.00;47.40;;;;;;5037323;28;20029;-60
2022/09/12 13:19:18;;;;;;;2.65;1.60;;;26.00;47.30;;;;;;5037188;28;20105;-59